createdAt,value
2022-09-23T00:01:32.896Z,6.00
2022-09-23T00:04:20.563Z,7.27
2022-09-23T00:07:08.414Z,6.80
2022-09-23T00:09:56.054Z,5.77
2022-09-23T00:12:43.699Z,10.07
2022-09-23T00:15:31.701Z,6.97
2022-09-23T00:18:20.723Z,12.00
2022-09-23T00:21:09.923Z,7.67
2022-09-23T00:23:57.759Z,7.47
2022-09-23T00:26:44.983Z,5.07
2022-09-23T00:29:32.961Z,7.27
2022-09-23T00:32:20.389Z,5.10
2022-09-23T00:35:09.344Z,6.97
2022-09-23T00:37:57.278Z,5.97
2022-09-23T00:40:47.534Z,4.93
2022-09-23T00:43:42.894Z,6.57
2022-09-23T00:46:38.904Z,6.70
2022-09-23T00:49:30.329Z,4.73
2022-09-23T00:52:19.049Z,4.87
2022-09-23T00:55:09.824Z,5.33
2022-09-23T00:57:58.935Z,5.47
2022-09-23T01:00:46.912Z,6.03
2022-09-23T01:03:34.884Z,5.83
2022-09-23T01:06:22.889Z,8.57
2022-09-23T01:09:10.108Z,5.03
2022-09-23T01:12:16.358Z,5.30
2022-09-23T01:15:11.439Z,5.37
2022-09-23T01:18:10.465Z,6.03
2022-09-23T01:21:03.273Z,4.67
2022-09-23T01:23:50.688Z,4.90
2022-09-23T01:26:51.920Z,6.23
2022-09-23T01:29:39.530Z,7.20
2022-09-23T01:32:45.462Z,4.20
2022-09-23T01:35:43.522Z,6.90
2022-09-23T01:38:30.912Z,4.87
2022-09-23T01:41:37.577Z,7.77
2022-09-23T01:44:42.175Z,4.23
2022-09-23T01:47:32.819Z,6.93
2022-09-23T01:50:42.217Z,4.80
2022-09-23T01:53:32.937Z,7.50
2022-09-23T01:56:32.855Z,9.57
2022-09-23T01:59:23.515Z,4.70
2022-09-23T02:02:19.546Z,4.90
2022-09-23T02:05:10.377Z,6.13
2022-09-23T02:08:01.106Z,5.97
2022-09-23T02:10:52.514Z,5.90
2022-09-23T02:13:51.937Z,7.97
2022-09-23T02:16:47.938Z,7.83
2022-09-23T02:19:42.214Z,6.23
2022-09-23T02:22:43.859Z,7.20
2022-09-23T02:25:36.073Z,3.53
2022-09-23T02:28:31.982Z,6.13
2022-09-23T02:31:29.050Z,6.23
2022-09-23T02:34:20.025Z,5.17
2022-09-23T02:37:10.635Z,7.10
2022-09-23T02:39:58.432Z,5.03
2022-09-23T02:42:46.295Z,4.80
2022-09-23T02:45:34.816Z,4.13
2022-09-23T02:48:23.840Z,4.07
2022-09-23T02:51:11.629Z,5.93
2022-09-23T02:53:59.572Z,4.00
2022-09-23T02:56:49.509Z,4.93
2022-09-23T02:59:37.654Z,4.27
2022-09-23T03:02:33.505Z,4.90
2022-09-23T03:05:31.522Z,5.10
2022-09-23T03:08:37.800Z,5.07
2022-09-23T03:11:26.057Z,6.10
2022-09-23T03:14:20.240Z,5.13
2022-09-23T03:17:12.459Z,3.97
2022-09-23T03:20:04.415Z,5.10
2022-09-23T03:22:58.154Z,4.10
2022-09-23T03:25:48.426Z,4.43
2022-09-23T03:28:37.469Z,4.67
2022-09-23T03:31:25.254Z,5.87
2022-09-23T03:34:19.195Z,4.40
2022-09-23T03:37:31.723Z,5.47
2022-09-23T03:40:24.801Z,6.30
2022-09-23T03:43:13.767Z,3.00
2022-09-23T03:46:01.337Z,4.30
2022-09-23T03:48:49.660Z,3.67
2022-09-23T03:51:39.522Z,4.37
2022-09-23T03:54:30.780Z,3.13
2022-09-23T03:57:19.047Z,4.43
2022-09-23T04:00:07.853Z,3.20
2022-09-23T04:02:55.062Z,3.10
2022-09-23T04:05:43.431Z,3.43
2022-09-23T04:08:31.217Z,3.30
2022-09-23T04:11:19.096Z,4.30
2022-09-23T04:14:06.952Z,3.60
2022-09-23T04:16:54.234Z,3.10
2022-09-23T04:19:41.804Z,3.40
2022-09-23T04:22:29.204Z,4.37
2022-09-23T04:25:17.098Z,4.00
2022-09-23T04:28:04.761Z,2.90
2022-09-23T04:30:52.338Z,3.30
2022-09-23T04:33:39.823Z,5.03
2022-09-23T04:36:27.401Z,3.43
2022-09-23T04:39:16.589Z,3.43
2022-09-23T04:42:04.260Z,3.83
2022-09-23T04:44:52.126Z,4.03
2022-09-23T04:47:39.553Z,2.83
2022-09-23T04:50:27.459Z,3.70
2022-09-23T04:53:17.041Z,4.17
2022-09-23T04:56:06.709Z,3.60
2022-09-23T04:58:54.621Z,4.37
2022-09-23T05:01:42.636Z,4.03
2022-09-23T05:04:31.386Z,3.13
2022-09-23T05:07:19.575Z,4.60
2022-09-23T05:10:07.469Z,3.77
2022-09-23T05:12:57.356Z,3.43
2022-09-23T05:15:44.856Z,4.77
2022-09-23T05:18:33.462Z,3.23
2022-09-23T05:21:22.055Z,3.47
2022-09-23T05:24:09.813Z,3.73
2022-09-23T05:26:57.246Z,5.80
2022-09-23T05:29:45.143Z,4.73
2022-09-23T05:32:32.982Z,3.50
2022-09-23T05:35:20.422Z,4.30
2022-09-23T05:38:08.356Z,4.27
2022-09-23T05:40:56.929Z,3.30
2022-09-23T05:43:44.833Z,8.13
2022-09-23T05:46:33.116Z,5.00
2022-09-23T05:49:29.556Z,3.83
2022-09-23T05:52:25.965Z,5.03
2022-09-23T05:55:13.850Z,4.87
2022-09-23T05:58:01.526Z,4.23
2022-09-23T06:00:49.285Z,7.47
2022-09-23T06:03:37.141Z,8.07
2022-09-23T06:06:31.629Z,6.20
2022-09-23T06:09:19.478Z,5.07
2022-09-23T06:12:07.014Z,3.83
2022-09-23T06:14:54.765Z,3.20
2022-09-23T06:17:42.646Z,3.03
2022-09-23T06:20:30.089Z,5.90
2022-09-23T06:23:17.879Z,3.03
2022-09-23T06:26:06.934Z,4.97
2022-09-23T06:28:54.799Z,2.90
2022-09-23T06:31:43.357Z,5.00
2022-09-23T06:34:35.408Z,2.43
2022-09-23T06:37:28.566Z,2.37
2022-09-23T06:40:16.160Z,5.73
2022-09-23T06:43:03.574Z,2.77
2022-09-23T06:45:58.340Z,2.03
2022-09-23T06:48:46.419Z,3.77
2022-09-23T06:51:34.437Z,2.20
2022-09-23T06:54:21.919Z,12.10
2022-09-23T06:57:10.189Z,3.13
2022-09-23T07:00:00.783Z,2.23
2022-09-23T07:02:48.807Z,2.53
2022-09-23T07:05:39.040Z,3.93
2022-09-23T07:08:27.812Z,2.43
2022-09-23T07:11:16.103Z,2.90
2022-09-23T07:14:03.743Z,1.73
2022-09-23T07:16:54.191Z,2.10
2022-09-23T07:19:42.100Z,2.30
2022-09-23T07:22:29.531Z,2.50
2022-09-23T07:25:17.548Z,4.43
2022-09-23T07:28:05.465Z,1.77
2022-09-23T07:31:00.068Z,1.60
2022-09-23T07:33:48.270Z,2.25
2022-09-23T07:36:37.410Z,3.08
2022-09-23T07:39:25.506Z,2.58
2022-09-23T07:42:14.245Z,3.70
2022-09-23T07:45:02.580Z,2.45
2022-09-23T07:47:49.970Z,3.72
2022-09-23T07:50:39.263Z,6.18
2022-09-23T07:53:27.225Z,2.72
2022-09-23T07:56:14.648Z,3.75
2022-09-23T07:59:03.941Z,2.88
2022-09-23T08:01:55.477Z,1.40
2022-09-23T08:04:43.777Z,2.25
2022-09-23T08:07:34.322Z,2.50
2022-09-23T08:10:22.567Z,2.03
2022-09-23T08:13:10.603Z,2.83
2022-09-23T08:15:58.778Z,2.28
2022-09-23T08:18:46.637Z,2.17
2022-09-23T08:21:34.140Z,3.08
2022-09-23T08:24:24.258Z,2.78
2022-09-23T08:27:12.668Z,1.67
2022-09-23T08:30:00.090Z,1.83
2022-09-23T08:32:50.498Z,2.35
2022-09-23T08:35:38.029Z,2.60
2022-09-23T08:38:25.569Z,6.78
2022-09-23T08:41:18.226Z,2.03
2022-09-23T08:44:12.334Z,1.27
2022-09-23T08:47:15.478Z,1.73
2022-09-23T08:50:13.931Z,1.88
2022-09-23T08:53:07.697Z,1.98
2022-09-23T08:55:56.933Z,2.05
2022-09-23T08:58:50.661Z,2.95
2022-09-23T09:01:46.464Z,3.10
2022-09-23T09:04:41.429Z,2.85
2022-09-23T09:07:38.223Z,2.67
2022-09-23T09:10:28.652Z,2.03
2022-09-23T09:13:33.087Z,2.28
2022-09-23T09:16:55.374Z,3.15
2022-09-23T09:19:46.622Z,2.25
2022-09-23T09:22:53.305Z,2.30
2022-09-23T09:25:40.762Z,2.47
2022-09-23T09:28:36.296Z,2.20
2022-09-23T09:31:31.495Z,4.13
2022-09-23T09:34:25.100Z,4.75
2022-09-23T09:37:31.671Z,3.45
2022-09-23T09:40:20.752Z,3.08
2022-09-23T09:43:08.191Z,6.85
2022-09-23T09:46:08.834Z,3.00
2022-09-23T09:51:27.994Z,7.38
2022-09-23T09:54:33.382Z,5.20
2022-09-23T09:57:33.561Z,4.35
2022-09-23T10:00:25.226Z,2.30
2022-09-23T10:03:24.155Z,2.10
2022-09-23T10:06:15.845Z,4.47
2022-09-23T10:09:09.780Z,8.15
2022-09-23T10:12:04.136Z,2.75
2022-09-23T10:14:53.122Z,2.90
2022-09-23T10:17:41.058Z,3.45
2022-09-23T10:20:38.001Z,2.28
2022-09-23T10:23:28.317Z,4.07
2022-09-23T10:26:18.768Z,2.45
2022-09-23T10:29:26.408Z,2.78
2022-09-23T10:32:23.149Z,3.05
2022-09-23T10:35:11.762Z,2.50
2022-09-23T10:38:00.985Z,2.50
2022-09-23T10:41:07.061Z,2.85
2022-09-23T10:44:19.894Z,1.60
2022-09-23T10:47:25.478Z,3.50
2022-09-23T10:50:33.565Z,1.60
2022-09-23T10:53:42.043Z,5.57
2022-09-23T10:56:40.302Z,1.88
2022-09-23T10:59:56.862Z,1.73
2022-09-23T11:02:44.847Z,1.77
2022-09-23T11:05:51.215Z,2.22
2022-09-23T11:08:57.795Z,1.40
2022-09-23T11:11:53.168Z,1.92
2022-09-23T11:14:44.138Z,1.70
2022-09-23T11:17:36.825Z,1.98
2022-09-23T11:20:47.841Z,1.75
2022-09-23T11:23:38.166Z,2.42
2022-09-23T11:26:58.639Z,1.83
2022-09-23T11:30:04.304Z,1.85
2022-09-23T11:33:14.528Z,3.05
2022-09-23T11:36:23.937Z,2.15
2022-09-23T11:39:19.823Z,2.15
2022-09-23T11:42:12.302Z,2.35
2022-09-23T11:45:01.946Z,2.33
2022-09-23T11:47:58.479Z,4.03
2022-09-23T11:50:48.976Z,2.45
2022-09-23T11:53:58.573Z,2.33
2022-09-23T11:56:49.258Z,1.75
2022-09-23T11:59:40.676Z,2.13
2022-09-23T12:03:00.622Z,3.97
2022-09-23T12:06:12.622Z,2.38
2022-09-23T12:09:02.820Z,2.88
2022-09-23T12:11:50.261Z,2.38
2022-09-23T12:14:47.327Z,3.22
2022-09-23T12:17:43.559Z,3.67
2022-09-23T12:20:51.878Z,4.55
2022-09-23T12:23:39.275Z,2.08
2022-09-23T12:26:27.843Z,2.25
2022-09-23T12:29:15.987Z,3.20
2022-09-23T12:32:07.647Z,2.25
2022-09-23T12:34:55.759Z,4.10
2022-09-23T12:37:43.689Z,3.90
2022-09-23T12:40:44.755Z,4.22
2022-09-23T12:43:35.263Z,3.33
2022-09-23T12:46:27.345Z,3.03
2022-09-23T12:49:25.268Z,2.80
2022-09-23T12:52:12.657Z,2.75
2022-09-23T12:55:18.876Z,2.60
2022-09-23T12:58:26.362Z,2.90
2022-09-23T13:01:19.501Z,2.75
2022-09-23T13:04:25.769Z,3.90
2022-09-23T13:07:15.587Z,3.15
2022-09-23T13:10:26.787Z,2.58
2022-09-23T13:13:26.156Z,13.48
2022-09-23T13:16:27.125Z,3.35
2022-09-23T13:19:26.712Z,2.45
2022-09-23T13:22:14.819Z,4.57
2022-09-23T13:25:04.173Z,2.67
2022-09-23T13:27:54.570Z,2.63
2022-09-23T13:30:48.534Z,5.80
2022-09-23T13:33:57.321Z,3.10
2022-09-23T13:36:46.138Z,2.85
2022-09-23T13:39:33.565Z,3.05
2022-09-23T13:42:29.840Z,5.63
2022-09-23T13:45:19.120Z,2.55
2022-09-23T13:48:08.089Z,3.22
2022-09-23T13:50:56.534Z,2.47
2022-09-23T13:53:51.755Z,2.50
2022-09-23T13:56:49.309Z,3.58
2022-09-23T13:59:43.027Z,3.33
2022-09-23T14:02:30.506Z,2.80
2022-09-23T14:05:23.064Z,3.33
2022-09-23T14:08:10.584Z,4.13
2022-09-23T14:10:59.123Z,3.55
2022-09-23T14:13:48.243Z,3.45
2022-09-23T14:16:40.154Z,3.38
2022-09-23T14:19:27.659Z,5.57
2022-09-23T14:22:28.959Z,2.85
2022-09-23T14:25:17.875Z,3.72
2022-09-23T14:28:05.643Z,4.90
2022-09-23T14:30:54.524Z,4.82
2022-09-23T14:33:43.157Z,2.60
2022-09-23T14:36:54.430Z,3.33
2022-09-23T14:39:42.097Z,3.28
2022-09-23T14:42:31.700Z,3.38
2022-09-23T14:45:21.206Z,3.63
2022-09-23T14:48:19.195Z,5.68
2022-09-23T14:51:13.121Z,2.63
2022-09-23T14:54:31.132Z,1.95
2022-09-23T14:57:25.923Z,2.13
2022-09-23T15:00:18.029Z,2.50
2022-09-23T15:03:15.223Z,3.40
2022-09-23T15:06:08.788Z,2.00
2022-09-23T15:08:56.678Z,2.72
2022-09-23T15:11:44.122Z,3.05
2022-09-23T15:14:39.738Z,1.70
2022-09-23T15:17:33.699Z,1.90
2022-09-23T15:20:21.562Z,2.78
2022-09-23T15:23:28.923Z,1.90
2022-09-23T15:26:23.939Z,2.78
2022-09-23T15:29:11.465Z,2.88
2022-09-23T15:32:00.456Z,2.55
2022-09-23T15:34:50.049Z,6.40
2022-09-23T15:37:37.448Z,1.65
2022-09-23T15:40:26.798Z,3.53
2022-09-23T15:43:20.746Z,2.72
2022-09-23T15:46:14.081Z,2.00
2022-09-23T15:51:44.207Z,3.67
2022-09-23T15:54:34.057Z,3.22
2022-09-23T15:57:26.120Z,3.28
2022-09-23T16:00:14.061Z,2.53
2022-09-23T16:03:01.359Z,4.03
2022-09-23T16:05:44.184Z,2.88
2022-09-23T16:08:32.947Z,2.60
2022-09-23T16:11:32.139Z,5.30
2022-09-23T16:14:20.134Z,4.05
2022-09-23T16:17:08.612Z,2.15
2022-09-23T16:19:56.514Z,4.50
2022-09-23T16:22:45.050Z,3.05
2022-09-23T16:25:35.955Z,2.80
2022-09-23T16:28:23.607Z,2.15
2022-09-23T16:31:11.866Z,4.38
2022-09-23T16:34:02.640Z,3.28
2022-09-23T16:36:50.499Z,3.65
2022-09-23T16:39:37.925Z,3.78
2022-09-23T16:42:25.217Z,6.05
2022-09-23T16:45:13.692Z,4.22
2022-09-23T16:48:01.591Z,4.68
2022-09-23T16:50:49.412Z,4.15
2022-09-23T16:53:37.594Z,6.28
2022-09-23T16:56:28.928Z,3.22
2022-09-23T16:59:17.149Z,3.88
2022-09-23T17:02:23.247Z,6.60
2022-09-23T17:05:12.374Z,4.20
2022-09-23T17:08:00.621Z,3.67
2022-09-23T17:10:55.328Z,5.10
2022-09-23T17:13:43.060Z,4.35
2022-09-23T17:16:32.234Z,5.88
2022-09-23T17:19:19.593Z,4.93
2022-09-23T17:22:07.445Z,7.05
2022-09-23T17:24:55.125Z,4.25
2022-09-23T17:27:42.593Z,3.65
2022-09-23T17:30:30.420Z,5.18
2022-09-23T17:33:19.877Z,4.20
2022-09-23T17:36:11.377Z,4.53
2022-09-23T17:38:58.804Z,5.68
2022-09-23T17:41:46.251Z,4.00
2022-09-23T17:44:33.904Z,5.95
2022-09-23T17:47:21.795Z,6.03
2022-09-23T17:50:09.589Z,7.30
2022-09-23T17:52:58.871Z,6.90
2022-09-23T17:55:55.191Z,6.80
2022-09-23T17:58:43.223Z,6.80
2022-09-23T18:01:31.085Z,5.13
2022-09-23T18:04:18.956Z,4.93
2022-09-23T18:07:06.434Z,5.18
2022-09-23T18:09:54.286Z,5.80
2022-09-23T18:12:41.797Z,4.22
2022-09-23T18:15:29.725Z,8.05
2022-09-23T18:18:17.147Z,8.45
2022-09-23T18:21:05.587Z,6.63
2022-09-23T18:23:53.371Z,5.43
2022-09-23T18:26:42.171Z,6.85
2022-09-23T18:29:29.840Z,6.57
2022-09-23T18:32:17.280Z,9.93
2022-09-23T18:35:05.526Z,9.00
2022-09-23T18:37:53.041Z,6.25
2022-09-23T18:40:40.846Z,10.13
2022-09-23T18:43:37.221Z,5.72
2022-09-23T18:46:31.240Z,5.97
2022-09-23T18:49:37.605Z,5.03
2022-09-23T18:52:26.765Z,5.72
2022-09-23T18:55:14.160Z,6.07
2022-09-23T18:58:02.029Z,5.95
2022-09-23T19:00:51.887Z,7.03
2022-09-23T19:03:39.814Z,8.15
2022-09-23T19:06:27.225Z,7.03
2022-09-23T19:09:18.449Z,7.57
2022-09-23T19:12:05.921Z,7.40
2022-09-23T19:14:53.782Z,5.47
2022-09-23T19:17:41.417Z,7.80
2022-09-23T19:20:29.528Z,9.23
2022-09-23T19:23:17.347Z,7.47
2022-09-23T19:26:04.813Z,7.77
2022-09-23T19:28:56.606Z,7.63
2022-09-23T19:31:44.883Z,12.23
2022-09-23T19:34:34.603Z,7.17
2022-09-23T19:37:22.911Z,6.77
2022-09-23T19:40:10.561Z,9.00
2022-09-23T19:42:58.755Z,11.90
2022-09-23T19:45:53.702Z,10.60
2022-09-23T19:48:41.733Z,11.07
2022-09-23T19:51:29.251Z,12.97
2022-09-23T19:54:20.679Z,10.33
2022-09-23T19:57:09.489Z,9.13
2022-09-23T19:59:57.345Z,9.97
2022-09-23T20:02:44.789Z,10.97
2022-09-23T20:05:32.240Z,11.37
2022-09-23T20:08:19.840Z,11.00
2022-09-23T20:11:10.704Z,17.53
2022-09-23T20:14:01.839Z,13.03
2022-09-23T20:16:49.383Z,11.53
2022-09-23T20:19:37.050Z,11.43
2022-09-23T20:22:27.502Z,9.50
2022-09-23T20:25:18.302Z,10.27
2022-09-23T20:28:05.773Z,11.33
2022-09-23T20:30:58.457Z,8.67
2022-09-23T20:33:46.133Z,9.67
2022-09-23T20:36:35.467Z,8.03
2022-09-23T20:39:22.937Z,6.77
2022-09-23T20:42:10.855Z,7.80
2022-09-23T20:44:58.370Z,8.93
2022-09-23T20:47:46.214Z,9.60
2022-09-23T20:50:33.891Z,8.17
2022-09-23T20:53:23.661Z,9.03
2022-09-23T20:56:11.083Z,9.13
2022-09-23T20:59:02.394Z,9.97
2022-09-23T21:01:53.962Z,8.73
2022-09-23T21:04:41.781Z,9.60
2022-09-23T21:07:30.923Z,9.43
2022-09-23T21:10:18.778Z,8.63
2022-09-23T21:13:07.416Z,7.33
2022-09-23T21:15:55.378Z,8.67
2022-09-23T21:18:42.793Z,7.33
2022-09-23T21:21:31.021Z,7.97
2022-09-23T21:27:28.063Z,8.70
2022-09-23T21:30:15.939Z,7.97
2022-09-23T21:33:03.450Z,8.10
2022-09-23T21:35:54.703Z,7.93
2022-09-23T21:38:42.547Z,9.43
2022-09-23T21:41:29.955Z,8.37
2022-09-23T21:44:17.368Z,7.93
2022-09-23T21:47:04.668Z,7.17
2022-09-23T21:49:52.500Z,8.17
2022-09-23T21:52:40.349Z,7.07
2022-09-23T21:55:30.447Z,6.37
2022-09-23T21:58:18.362Z,8.60
2022-09-23T22:01:10.094Z,5.67
2022-09-23T22:03:59.171Z,6.33
2022-09-23T22:06:48.779Z,6.47
2022-09-23T22:09:36.894Z,8.80
2022-09-23T22:12:24.125Z,5.67
2022-09-23T22:15:11.970Z,7.37
2022-09-23T22:17:59.703Z,5.87
2022-09-23T22:20:48.175Z,5.40
2022-09-23T22:23:36.000Z,4.73
2022-09-23T22:26:24.293Z,8.73
2022-09-23T22:29:34.237Z,10.33
2022-09-23T22:32:55.311Z,4.43
2022-09-23T22:35:43.256Z,4.83
2022-09-23T22:38:31.089Z,5.30
2022-09-23T22:41:21.105Z,6.53
2022-09-23T22:44:08.618Z,4.90
2022-09-23T22:46:58.384Z,4.50
2022-09-23T22:49:46.625Z,5.50
2022-09-23T22:52:35.266Z,5.67
2022-09-23T22:55:22.668Z,5.23
2022-09-23T22:58:30.676Z,5.70
2022-09-23T23:01:17.915Z,5.90
2022-09-23T23:04:05.899Z,4.73
2022-09-23T23:06:53.652Z,5.23
2022-09-23T23:09:41.167Z,5.17
2022-09-23T23:12:28.916Z,4.73
2022-09-23T23:15:16.418Z,6.53
2022-09-23T23:18:04.079Z,4.13
2022-09-23T23:20:51.907Z,4.53
2022-09-23T23:23:49.760Z,4.50
2022-09-23T23:26:37.591Z,5.60
2022-09-23T23:29:24.986Z,4.87
2022-09-23T23:32:12.861Z,7.47
2022-09-23T23:35:00.544Z,4.93
2022-09-23T23:37:48.398Z,6.10
2022-09-23T23:40:38.776Z,5.57
2022-09-23T23:43:26.144Z,4.67
2022-09-23T23:46:14.781Z,4.50
2022-09-23T23:49:02.223Z,4.63
2022-09-23T23:51:50.260Z,7.37
2022-09-23T23:54:37.799Z,4.47
2022-09-23T23:57:25.439Z,4.43
